Time;durP1;ratioP1;P1;durP2;ratioP2;P2;SDS_P1;SDS_P2;PMS_P1;PMS_P2;Temp;Humidity;BMP_temperature;BMP_pressure;BME280_temperature;BME280_humidity;BME280_pressure;Samples;Min_cycle;Max_cycle;Signal;HPM_P1;HPM_P2
2022/03/12 00:01:30;;;;;;;33.13;17.85;;;;;;;-3.89;49.65;101291.92;1690786;82;21054;-65
2022/03/12 00:03:58;;;;;;;23.87;12.98;;;;;;;-3.92;49.68;101290.92;1754962;81;21025;-65
2022/03/12 00:06:25;;;;;;;17.15;10.03;;;;;;;-3.95;49.69;101287.87;1694459;82;20955;-65
2022/03/12 00:08:53;;;;;;;20.05;10.28;;;;;;;-3.98;49.71;101282.64;1725218;82;20926;-65
2022/03/12 00:11:22;;;;;;;21.65;10.72;;;;;;;-4.00;49.77;101293.22;1726510;82;20981;-65
2022/03/12 00:13:51;;;;;;;18.85;9.33;;;;;;;-4.02;49.81;101284.63;1717259;82;22732;-65
2022/03/12 00:16:24;;;;;;;16.75;9.83;;;;;;;-4.03;49.82;101293.11;1726616;82;20933;-65
2022/03/12 00:18:55;;;;;;;15.58;9.63;;;;;;;-4.06;49.90;101293.00;1722145;82;20988;-65
2022/03/12 00:21:24;;;;;;;18.27;9.95;;;;;;;-4.06;49.92;101287.89;1720875;82;20937;-65
2022/03/12 00:23:53;;;;;;;20.23;8.95;;;;;;;-4.08;49.93;101282.72;1723101;82;20946;-65
2022/03/12 00:26:23;;;;;;;21.93;9.10;;;;;;;-4.08;49.96;101284.41;1720652;82;21054;-65
2022/03/12 00:28:50;;;;;;;20.80;9.63;;;;;;;-4.07;50.01;101279.34;1726123;82;20950;-65
2022/03/12 00:31:17;;;;;;;18.75;9.20;;;;;;;-4.07;49.99;101273.38;1728991;82;20938;-65
2022/03/12 00:33:43;;;;;;;17.70;9.28;;;;;;;-4.08;49.99;101269.10;1719604;82;21381;-64
2022/03/12 00:36:11;;;;;;;12.83;7.70;;;;;;;-4.12;49.99;101268.09;1721801;82;21481;-64
2022/03/12 00:38:38;;;;;;;15.18;8.45;;;;;;;-4.13;50.04;101266.37;1720054;82;21744;-65
2022/03/12 00:41:07;;;;;;;17.37;8.40;;;;;;;-4.12;50.07;101270.64;1741761;80;20878;-65
2022/03/12 00:43:34;;;;;;;15.03;7.83;;;;;;;-4.12;50.06;101259.58;1743754;81;20902;-65
2022/03/12 00:46:01;;;;;;;13.43;8.13;;;;;;;-4.14;50.09;101251.02;1744392;81;20914;-65
2022/03/12 00:48:28;;;;;;;14.38;7.58;;;;;;;-4.14;50.04;101249.34;1743170;80;21395;-65
2022/03/12 00:50:55;;;;;;;17.50;7.85;;;;;;;-4.15;50.05;101239.92;1745279;80;21187;-65
2022/03/12 00:53:21;;;;;;;14.40;7.33;;;;;;;-4.17;50.10;101245.78;1752389;80;21422;-65
2022/03/12 00:55:48;;;;;;;20.10;8.30;;;;;;;-4.19;50.15;101242.33;1746912;80;20908;-65
2022/03/12 00:58:15;;;;;;;15.17;7.97;;;;;;;-4.19;50.11;101244.88;1709713;82;20939;-65
2022/03/12 01:00:42;;;;;;;13.58;7.33;;;;;;;-4.19;50.18;101248.70;1748492;81;20948;-65
2022/03/12 01:03:08;;;;;;;14.00;8.18;;;;;;;-4.20;50.19;101249.12;1713277;82;21054;-65
2022/03/12 01:05:55;;;;;;;14.73;7.65;;;;;;;-4.19;50.19;101260.19;1750780;80;20917;-65
2022/03/12 01:08:23;;;;;;;14.68;8.03;;;;;;;-4.21;50.22;101251.19;1743304;81;20951;-65
2022/03/12 01:10:50;;;;;;;17.17;7.37;;;;;;;-4.22;50.21;101260.07;1747823;81;20956;-65
2022/03/12 01:13:17;;;;;;;14.05;7.45;;;;;;;-4.21;50.26;101263.08;1738267;81;20927;-65
2022/03/12 01:15:44;;;;;;;16.50;7.97;;;;;;;-4.21;50.29;101262.66;1706328;82;21105;-65
2022/03/12 01:18:14;;;;;;;11.90;8.03;;;;;;;-4.20;50.27;101264.80;1753451;80;20846;-65
2022/03/12 01:20:42;;;;;;;20.97;8.75;;;;;;;-4.20;50.28;101260.97;1712137;82;20898;-65
2022/03/12 01:23:12;;;;;;;;;;;;;;;-4.21;50.27;101263.94;1708885;82;20951;-65
2022/03/12 01:25:39;;;;;;;18.12;9.03;;;;;;;-4.22;50.32;101253.70;1747959;80;20087;-65
2022/03/12 01:28:09;;;;;;;15.90;8.13;;;;;;;-4.22;50.30;101258.80;1746252;80;21051;-65
2022/03/12 01:30:36;;;;;;;15.75;8.53;;;;;;;-4.22;50.36;101262.62;1711742;82;20911;-65
2022/03/12 01:33:03;;;;;;;14.58;8.70;;;;;;;-4.24;50.36;101261.69;1741100;81;20902;-64
2022/03/12 01:35:30;;;;;;;22.02;8.93;;;;;;;-4.24;50.39;101254.90;1702262;82;21029;-65
2022/03/12 01:37:57;;;;;;;17.55;8.78;;;;;;;-4.25;50.32;101249.76;1724114;82;20949;-65
2022/03/12 01:40:23;;;;;;;13.70;7.97;;;;;;;-4.27;50.41;101250.55;1746968;80;21924;-65
2022/03/12 01:42:50;;;;;;;19.60;9.73;;;;;;;-4.29;50.42;101247.06;1746007;81;20894;-65
2022/03/12 01:45:28;;;;;;;15.10;8.90;;;;;;;-4.29;50.50;101241.97;1715310;82;20896;-65
2022/03/12 01:48:00;;;;;;;19.60;9.10;;;;;;;-4.45;50.42;101219.28;1754164;80;21640;-65
2022/03/12 01:50:33;;;;;;;15.00;8.18;;;;;;;-4.30;50.50;101249.58;1723586;82;21541;-65
2022/03/12 01:53:05;;;;;;;15.23;7.78;;;;;;;-4.32;50.50;101246.95;1746637;80;21116;-65
2022/03/12 01:55:31;;;;;;;15.28;8.45;;;;;;;-4.34;50.46;101242.61;1742174;80;21411;-65
2022/03/12 01:58:02;;;;;;;19.52;9.60;;;;;;;-4.34;50.46;101244.77;1720982;82;21464;-64
2022/03/12 02:00:45;;;;;;;15.28;9.03;;;;;;;-4.36;50.50;101242.56;1723540;82;20932;-65
2022/03/12 02:03:14;;;;;;;17.23;8.73;;;;;;;-4.36;50.57;101245.12;1720104;82;20967;-65
2022/03/12 02:05:42;;;;;;;16.30;7.42;;;;;;;-4.38;50.60;101244.18;1712975;82;21142;-65
2022/03/12 02:08:14;;;;;;;12.88;7.50;;;;;;;-4.39;50.65;101237.35;1743152;80;20874;-65
2022/03/12 02:10:42;;;;;;;15.93;7.78;;;;;;;-4.40;50.63;101239.42;1750040;80;21382;-64
2022/03/12 02:13:11;;;;;;;13.93;8.03;;;;;;;-4.43;50.61;101235.48;1753655;80;20918;-65
2022/03/12 02:15:38;;;;;;;12.40;7.53;;;;;;;-4.45;50.61;101240.06;1747691;80;20928;-65
2022/03/12 02:18:05;;;;;;;15.10;7.65;;;;;;;-4.46;50.70;101229.41;1749507;80;21137;-65
2022/03/12 02:20:32;;;;;;;13.40;6.45;;;;;;;-4.46;50.73;101234.09;1748220;80;20927;-65
2022/03/12 02:22:59;;;;;;;12.70;7.08;;;;;;;-4.46;50.78;101227.72;1753335;81;20884;-65
2022/03/12 02:25:32;;;;;;;13.48;7.20;;;;;;;-4.48;50.70;101221.72;1750638;80;20880;-67
2022/03/12 02:28:01;;;;;;;13.45;7.03;;;;;;;-4.50;50.77;101218.23;1746025;81;20913;-65
2022/03/12 02:30:48;;;;;;;11.95;6.47;;;;;;;-4.52;50.83;101218.58;1747069;80;21114;-64
2022/03/12 02:33:05;;;;;;;10.98;7.17;;;;;;;-4.53;50.80;101219.40;1745323;80;20935;-64
2022/03/12 02:35:35;;;;;;;;;;;;;;;-4.53;50.79;101215.58;1749369;81;20919;-65
2022/03/12 02:38:01;;;;;;;12.90;6.87;;;;;;;-4.55;50.89;101212.09;1741510;80;20106;-65
2022/03/12 02:40:28;;;;;;;14.45;7.00;;;;;;;-4.57;50.79;101212.42;1739412;80;21476;-65
2022/03/12 02:42:58;;;;;;;14.40;7.30;;;;;;;-4.58;50.81;101215.39;1730884;81;21116;-65
2022/03/12 02:45:27;;;;;;;16.57;7.35;;;;;;;-4.58;50.80;101204.33;1748459;80;20887;-65
2022/03/12 02:47:55;;;;;;;17.25;7.17;;;;;;;-4.59;50.82;101198.78;1746609;80;20881;-65
2022/03/12 02:50:23;;;;;;;12.98;6.87;;;;;;;-4.59;50.84;101202.61;1743275;80;21423;-65
2022/03/12 02:52:51;;;;;;;13.88;6.83;;;;;;;-4.60;50.83;101197.02;1711522;82;20949;-65
2022/03/12 02:55:21;;;;;;;10.65;6.15;;;;;;;-4.62;50.86;101197.36;1715340;82;25267;-65
2022/03/12 02:57:49;;;;;;;11.35;6.55;;;;;;;-4.62;50.85;101199.91;1711765;82;20894;-64
2022/03/12 03:00:18;;;;;;;11.15;6.67;;;;;;;-4.64;50.82;101196.45;1715379;82;20949;-65
2022/03/12 03:02:55;;;;;;;15.20;6.95;;;;;;;-4.65;50.82;101199.80;1746067;82;20954;-64
2022/03/12 03:08:03;;;;;;;11.93;6.95;;;;;;;-4.66;50.88;101199.34;1750089;80;21144;-65
2022/03/12 03:10:37;;;;;;;12.75;7.10;;;;;;;-4.66;50.92;101199.34;1750039;80;21162;-65
2022/03/12 03:13:21;;;;;;;14.65;7.87;;;;;;;-4.68;50.92;101202.23;1737607;81;20890;-64
2022/03/12 03:16:00;;;;;;;14.50;7.50;;;;;;;-4.68;50.93;101207.33;1702253;82;20959;-65
2022/03/12 03:18:33;;;;;;;12.65;7.08;;;;;;;-4.68;50.95;101202.23;1746309;80;20898;-65
2022/03/12 03:21:01;;;;;;;12.40;6.85;;;;;;;-4.67;50.98;101200.17;1750610;80;21447;-64
2022/03/12 03:23:30;;;;;;;13.72;6.90;;;;;;;-4.67;50.95;101195.07;1709588;82;21527;-65
2022/03/12 03:25:59;;;;;;;14.10;7.37;;;;;;;-4.68;50.97;101197.14;1751373;80;20858;-65
2022/03/12 03:28:26;;;;;;;11.63;6.92;;;;;;;-4.67;51.07;101187.02;1734072;81;20894;-65
2022/03/12 03:30:52;;;;;;;12.13;6.83;;;;;;;-4.66;51.02;101192.97;1710520;82;20951;-65
2022/03/12 03:33:22;;;;;;;14.20;7.37;;;;;;;-4.64;51.01;101196.45;1737591;81;21041;-65
2022/03/12 03:35:50;;;;;;;10.60;7.22;;;;;;;-4.65;51.01;101203.62;1705203;82;21505;-65
2022/03/12 03:38:18;;;;;;;12.50;7.45;;;;;;;-4.66;51.05;101203.17;1750777;80;20907;-65
2022/03/12 03:40:46;;;;;;;15.25;8.23;;;;;;;-4.65;51.12;101203.24;1748660;80;20955;-64
2022/03/12 03:43:20;;;;;;;17.48;7.90;;;;;;;-4.63;51.23;101208.38;1712786;82;20906;-64
2022/03/12 03:45:51;;;;;;;13.15;7.83;;;;;;;-4.65;51.18;101199.80;1713794;82;21056;-65
2022/03/12 03:48:21;;;;;;;12.28;6.55;;;;;;;-4.65;51.24;101199.42;1716765;81;21028;-65
2022/03/12 03:50:49;;;;;;;14.53;7.58;;;;;;;-4.65;51.28;101204.89;1749473;81;20946;-65
2022/03/12 03:53:20;;;;;;;12.43;6.90;;;;;;;-4.64;51.27;101201.55;1756582;81;20914;-65
2022/03/12 03:55:49;;;;;;;12.07;7.40;;;;;;;-4.63;51.30;101200.32;1747358;81;20894;-65
2022/03/12 03:58:16;;;;;;;14.47;8.33;;;;;;;-4.62;51.34;101199.91;1746353;81;21881;-63
2022/03/12 04:00:53;;;;;;;18.15;7.35;;;;;;;-4.62;51.33;101199.91;1742083;81;20941;-63
2022/03/12 04:03:19;;;;;;;10.30;6.45;;;;;;;-4.64;51.33;101196.05;1739400;81;20973;-64
2022/03/12 04:05:47;;;;;;;18.95;8.98;;;;;;;-4.66;51.34;101192.97;1714894;82;21396;-64
2022/03/12 04:08:13;;;;;;;;;;;;;;;-4.67;51.37;101198.89;1713762;82;21454;-63
2022/03/12 04:10:40;;;;;;;11.12;6.65;;;;;;;-4.68;51.37;101195.45;1714450;82;21105;-66
2022/03/12 04:13:21;;;;;;;12.30;6.77;;;;;;;-4.70;51.34;101190.72;1708606;83;20946;-64
2022/03/12 04:15:52;;;;;;;17.50;6.75;;;;;;;-4.69;51.36;101192.86;1733080;81;21013;-64
2022/03/12 04:18:21;;;;;;;18.65;7.87;;;;;;;-4.72;51.38;101190.65;1735190;81;21907;-65
2022/03/12 04:20:48;;;;;;;17.30;7.00;;;;;;;-4.74;51.39;101184.62;1739336;81;20909;-64
2022/03/12 04:23:18;;;;;;;19.67;8.13;;;;;;;-4.75;51.40;101187.13;1735859;81;21019;-64
2022/03/12 04:25:51;;;;;;;14.03;7.72;;;;;;;-4.78;51.42;101176.41;1731911;81;21132;-64
2022/03/12 04:28:20;;;;;;;18.23;8.55;;;;;;;-4.76;51.43;101179.00;1734066;81;21096;-64
2022/03/12 04:30:47;;;;;;;16.02;7.58;;;;;;;-4.76;51.47;101180.27;1712429;81;21033;-65
2022/03/12 04:33:15;;;;;;;22.42;8.20;;;;;;;-4.78;51.43;101173.00;1740283;81;20937;-64
2022/03/12 04:35:43;;;;;;;23.75;8.28;;;;;;;-4.78;51.43;101181.50;1734969;81;21034;-64
2022/03/12 04:38:11;;;;;;;21.10;7.20;;;;;;;-4.79;51.47;101179.78;1741598;81;21428;-65
2022/03/12 04:40:41;;;;;;;16.40;7.78;;;;;;;-4.81;51.55;101176.30;1735724;81;21549;-64
2022/03/12 04:43:09;;;;;;;14.83;8.03;;;;;;;-4.81;51.56;101173.75;1741689;81;21432;-64
2022/03/12 04:45:36;;;;;;;;;;;;;;;-4.85;51.54;101169.33;1738966;81;20893;-64
2022/03/12 04:48:05;;;;;;;20.27;8.25;;;;;;;-4.87;51.59;101172.25;1739285;81;21253;-64
2022/03/12 04:50:34;;;;;;;18.25;8.18;;;;;;;-4.89;51.60;101176.41;1736480;82;20978;-64
2022/03/12 04:53:04;;;;;;;14.45;7.65;;;;;;;-4.92;51.58;101183.94;1734418;81;20954;-64
2022/03/12 04:55:31;;;;;;;16.87;8.05;;;;;;;-4.95;51.62;101182.54;1730976;81;21429;-64
2022/03/12 04:57:58;;;;;;;18.12;8.18;;;;;;;-4.98;51.65;101185.84;1721776;82;21484;-64
2022/03/12 05:00:28;;;;;;;16.00;7.77;;;;;;;-5.00;51.68;101185.31;1717664;82;21924;-64
2022/03/12 05:03:02;;;;;;;24.70;8.93;;;;;;;-5.00;51.70;101181.48;1713171;82;20961;-64
2022/03/12 05:05:30;;;;;;;19.77;7.70;;;;;;;-5.00;51.69;101184.03;1744622;81;20921;-64
2022/03/12 05:07:59;;;;;;;18.20;7.87;;;;;;;-5.01;51.69;101180.62;1750896;81;21451;-64
2022/03/12 05:10:29;;;;;;;16.00;8.03;;;;;;;-4.99;51.71;101190.45;1751631;81;20959;-64
2022/03/12 05:13:00;;;;;;;14.60;7.25;;;;;;;-4.95;51.78;101190.19;1749507;80;21933;-64
2022/03/12 05:15:25;;;;;;;17.52;8.05;;;;;;;-4.93;51.83;101191.09;1741578;80;20883;-64
2022/03/12 05:17:52;;;;;;;16.32;8.58;;;;;;;-4.88;51.88;101192.14;1745465;81;21526;-64
2022/03/12 05:20:25;;;;;;;12.90;7.42;;;;;;;-4.82;51.80;101184.73;1743876;80;20893;-64
2022/03/12 05:22:53;;;;;;;15.03;7.47;;;;;;;-4.74;51.83;101185.03;1716989;82;20990;-64
2022/03/12 05:25:20;;;;;;;13.48;7.92;;;;;;;-4.63;51.83;101180.34;1725572;82;21042;-64
2022/03/12 05:27:50;;;;;;;16.80;8.43;;;;;;;-4.47;51.92;101190.30;1722498;82;20908;-64
2022/03/12 05:30:18;;;;;;;14.73;8.60;;;;;;;-4.04;52.01;101184.20;1717533;82;21409;-64
2022/03/12 05:32:45;;;;;;;25.02;9.80;;;;;;;-3.45;51.98;101181.52;1724799;82;20902;-64
2022/03/12 05:35:11;;;;;;;17.12;8.38;;;;;;;-2.82;51.83;101182.67;1720652;82;20948;-65
2022/03/12 05:37:40;;;;;;;14.23;8.68;;;;;;;-2.32;51.56;101173.06;1742902;80;21072;-65
2022/03/12 05:40:09;;;;;;;16.60;8.80;;;;;;;-1.97;51.50;101173.16;1710752;82;20906;-65
2022/03/12 05:42:36;;;;;;;21.87;10.20;;;;;;;-1.69;51.23;101176.88;1713519;81;20877;-65
2022/03/12 05:45:08;;;;;;;24.50;9.03;;;;;;;-1.33;51.49;101182.48;1706401;82;20905;-65
2022/03/12 05:47:36;;;;;;;15.68;9.30;;;;;;;-0.97;51.25;101183.77;1706610;83;22137;-65
2022/03/12 05:50:09;;;;;;;13.72;8.63;;;;;;;-0.63;51.24;101179.82;1706025;84;21057;-65
2022/03/12 05:52:45;;;;;;;16.65;9.33;;;;;;;-0.19;51.13;101179.89;1689708;83;20962;-65
2022/03/12 05:55:12;;;;;;;16.25;9.28;;;;;;;0.22;51.01;101179.36;1689226;83;20958;-65
2022/03/12 05:57:38;;;;;;;13.25;7.97;;;;;;;0.57;51.11;101169.72;1709370;82;20873;-64
2022/03/12 06:00:11;;;;;;;14.18;8.83;;;;;;;0.88;50.85;101177.92;1711460;82;21013;-66
2022/03/12 06:02:36;;;;;;;49.53;11.57;;;;;;;1.21;50.92;101180.14;1710323;82;21279;-65
2022/03/12 06:05:05;;;;;;;47.35;11.75;;;;;;;1.58;50.79;101170.33;1709684;82;21507;-66
2022/03/12 06:07:32;;;;;;;17.65;10.95;;;;;;;1.85;50.70;101176.25;1710978;83;21001;-66
2022/03/12 06:10:07;;;;;;;34.53;17.20;;;;;;;2.18;50.86;101181.31;1711186;82;20914;-65
2022/03/12 06:12:35;;;;;;;36.75;18.20;;;;;;;2.49;50.41;101172.58;1710104;82;20926;-66
2022/03/12 06:15:08;;;;;;;31.97;23.38;;;;;;;2.63;50.27;101180.02;1710927;82;21102;-66
2022/03/12 06:17:34;;;;;;;38.60;27.45;;;;;;;2.90;50.43;101175.08;1708187;83;20976;-66
2022/03/12 06:20:01;;;;;;;54.67;19.98;;;;;;;3.07;50.06;101164.02;1710537;83;20870;-66
2022/03/12 06:22:28;;;;;;;25.17;17.40;;;;;;;3.25;50.29;101164.14;1711055;82;20957;-66
2022/03/12 06:24:54;;;;;;;35.40;30.23;;;;;;;3.66;50.45;101155.71;1708107;82;21467;-66
2022/03/12 06:27:22;;;;;;;55.60;46.67;;;;;;;4.01;50.06;101165.32;1710665;83;21049;-68
2022/03/12 06:29:49;;;;;;;113.08;87.88;;;;;;;4.20;49.80;101154.16;1711085;83;21433;-66
2022/03/12 06:32:15;;;;;;;;;;;;;;;4.41;50.06;101162.80;1714588;83;21442;-66
2022/03/12 06:34:45;;;;;;;51.37;38.63;;;;;;;4.60;49.67;101163.25;1710162;83;20197;-66
2022/03/12 06:37:15;;;;;;;60.38;48.25;;;;;;;4.76;49.83;101167.11;1711536;82;20942;-66
2022/03/12 06:39:41;;;;;;;47.80;32.10;;;;;;;4.92;49.64;101159.34;1710679;82;21047;-66
2022/03/12 06:42:09;;;;;;;26.65;18.98;;;;;;;5.09;49.58;101156.72;1691984;81;41845;-67
2022/03/12 06:44:37;;;;;;;31.27;20.10;;;;;;;5.25;49.51;101154.11;1752937;81;20906;-66
2022/03/12 06:47:09;;;;;;;21.77;14.58;;;;;;;5.25;49.39;101149.80;1749564;81;21182;-67
2022/03/12 06:49:38;;;;;;;16.45;10.30;;;;;;;5.43;49.49;101151.45;1743417;81;20985;-67
2022/03/12 06:52:06;;;;;;;13.45;8.70;;;;;;;5.64;49.48;101147.94;1750080;81;21062;-67
2022/03/12 06:54:33;;;;;;;17.05;10.82;;;;;;;5.84;49.45;101146.11;1750407;81;20996;-69
2022/03/12 06:57:03;;;;;;;17.25;10.05;;;;;;;5.91;48.92;101141.77;1749088;81;20851;-66
2022/03/12 06:59:29;;;;;;;20.88;12.05;;;;;;;5.95;48.78;101143.50;1744880;81;20964;-66
2022/03/12 07:01:56;;;;;;;15.65;8.90;;;;;;;5.94;48.87;101146.11;1751883;81;20945;-67
2022/03/12 07:04:23;;;;;;;21.73;10.48;;;;;;;5.98;48.81;101143.47;1752435;81;21047;-67
2022/03/12 07:06:50;;;;;;;20.00;8.60;;;;;;;5.97;48.47;101154.73;1750137;81;20867;-67
2022/03/12 07:09:17;;;;;;;14.80;8.93;;;;;;;5.81;48.26;101146.56;1752519;81;20930;-69
2022/03/12 07:11:44;;;;;;;14.78;8.20;;;;;;;5.66;48.05;101150.50;1710213;81;28518;-72
2022/03/12 07:14:11;;;;;;;23.05;9.28;;;;;;;5.59;48.31;101147.09;1753144;81;20910;-72
2022/03/12 07:16:37;;;;;;;14.05;8.25;;;;;;;5.37;48.12;101151.48;1749683;81;21057;-70
2022/03/12 07:19:04;;;;;;;13.08;7.85;;;;;;;5.18;48.03;101148.07;1759791;81;20962;-70
2022/03/12 07:21:31;;;;;;;37.90;9.17;;;;;;;5.10;47.75;101153.29;1706730;82;20930;-72
2022/03/12 07:23:57;;;;;;;9.63;7.37;;;;;;;5.14;47.77;101146.37;1720022;82;20921;-72
2022/03/12 07:26:24;;;;;;;10.53;7.43;;;;;;;5.21;47.44;101152.38;1741501;81;21480;-72
2022/03/12 07:28:51;;;;;;;17.07;7.60;;;;;;;5.26;47.43;101142.88;1743799;80;21033;-70
2022/03/12 07:31:18;;;;;;;13.58;6.80;;;;;;;5.40;47.39;101143.70;1706715;82;20956;-70
2022/03/12 07:33:45;;;;;;;17.20;6.85;;;;;;;5.52;47.32;101141.08;1737464;81;20931;-69
2022/03/12 07:36:11;;;;;;;14.15;7.53;;;;;;;5.60;47.33;101143.21;1739233;81;20958;-67
2022/03/12 07:38:38;;;;;;;13.97;8.20;;;;;;;5.59;47.44;101142.77;1751913;80;20867;-70
2022/03/12 07:41:07;;;;;;;20.57;8.40;;;;;;;5.60;47.42;101141.91;1749170;81;20851;-70
2022/03/12 07:43:34;;;;;;;19.57;6.90;;;;;;;5.36;46.76;101142.00;1729375;81;20902;-65
2022/03/12 07:46:03;;;;;;;15.68;7.28;;;;;;;5.08;46.72;101140.77;1717224;82;20953;-66
2022/03/12 07:48:30;;;;;;;13.15;7.42;;;;;;;4.93;46.77;101145.55;1716530;82;21500;-64
2022/03/12 07:50:58;;;;;;;14.53;6.40;;;;;;;4.83;46.73;101144.27;1712802;82;20924;-62
2022/03/12 07:53:25;;;;;;;16.10;7.58;;;;;;;4.74;46.70;101145.58;1729415;81;21039;-64
2022/03/12 07:55:52;;;;;;;11.20;7.07;;;;;;;4.67;46.38;101137.78;1727738;81;20893;-64
2022/03/12 07:58:18;;;;;;;19.80;7.97;;;;;;;4.59;46.22;101147.27;1726630;81;21005;-64
2022/03/12 08:00:45;;;;;;;16.40;7.20;;;;;;;4.40;46.11;101148.16;1729108;83;20945;-62
2022/03/12 08:03:12;;;;;;;17.20;7.70;;;;;;;4.28;45.93;101146.83;1730794;81;20945;-65
2022/03/12 08:05:38;;;;;;;14.37;7.97;;;;;;;4.24;45.72;101150.70;1728006;81;21440;-65
2022/03/12 08:08:05;;;;;;;14.68;7.28;;;;;;;4.20;45.89;101143.82;1728604;81;20906;-64
2022/03/12 08:11:24;;;;;;;12.63;7.20;;;;;;;4.20;45.84;101143.82;1734657;81;21858;-65
2022/03/12 08:13:02;;;;;;;12.25;7.67;;;;;;;4.19;45.61;101136.91;1692607;82;20957;-65
2022/03/12 08:15:29;;;;;;;16.65;7.92;;;;;;;4.20;45.41;101142.94;1728403;81;20950;-65
2022/03/12 08:17:56;;;;;;;11.80;7.42;;;;;;;4.28;45.52;101145.54;1731341;81;21052;-66
2022/03/12 08:20:22;;;;;;;16.80;7.85;;;;;;;4.35;45.54;101138.23;1735936;81;20953;-64
2022/03/12 08:22:50;;;;;;;26.27;8.40;;;;;;;4.42;45.49;101143.83;1706568;82;21587;-64
2022/03/12 08:25:17;;;;;;;24.40;8.65;;;;;;;4.49;45.48;101136.08;1699443;81;20903;-66
2022/03/12 08:27:44;;;;;;;18.80;8.45;;;;;;;4.70;45.44;101133.94;1719237;82;20980;-65
2022/03/12 08:30:12;;;;;;;14.33;7.10;;;;;;;4.75;45.30;101136.94;1734330;81;21037;-66
2022/03/12 08:32:40;;;;;;;14.58;7.12;;;;;;;4.75;44.85;101134.34;1707448;82;20918;-64
2022/03/12 08:35:09;;;;;;;18.20;7.40;;;;;;;4.73;44.94;101130.89;1691457;82;21489;-64
2022/03/12 08:37:36;;;;;;;15.38;7.78;;;;;;;4.75;44.66;101136.94;1700159;83;20919;-65
2022/03/12 08:40:06;;;;;;;13.13;7.60;;;;;;;4.77;44.77;101130.91;1728452;81;20949;-67
2022/03/12 08:42:34;;;;;;;10.05;6.80;;;;;;;4.87;44.72;101131.73;1724343;83;21711;-65
2022/03/12 08:45:01;;;;;;;12.80;8.05;;;;;;;5.00;44.69;101133.45;1744877;81;21480;-65
2022/03/12 08:47:28;;;;;;;32.50;9.38;;;;;;;5.09;44.71;101133.42;1759600;81;20930;-65
2022/03/12 08:49:55;;;;;;;15.32;7.50;;;;;;;5.22;44.70;101133.41;1742187;81;20965;-70
2022/03/12 08:52:22;;;;;;;13.10;7.67;;;;;;;5.30;44.33;101134.25;1737516;81;21464;-68
2022/03/12 08:54:49;;;;;;;12.68;7.65;;;;;;;5.34;44.16;101128.18;1735087;81;21486;-67
2022/03/12 08:57:16;;;;;;;10.73;7.27;;;;;;;5.28;44.01;101133.39;1707661;81;20914;-67
2022/03/12 08:59:43;;;;;;;21.00;11.53;;;;;;;5.35;44.16;101129.92;1747693;80;21586;-67
2022/03/12 09:02:10;;;;;;;33.65;15.90;;;;;;;5.42;44.03;101129.02;1758367;81;20913;-66
2022/03/12 09:04:37;;;;;;;19.80;9.95;;;;;;;5.44;43.93;101132.47;1747282;80;20985;-67
2022/03/12 09:07:05;;;;;;;22.00;9.95;;;;;;;5.52;43.93;101132.02;1748930;80;21221;-66
2022/03/12 09:09:32;;;;;;;86.08;42.73;;;;;;;5.51;43.60;101126.39;1750325;80;21436;-66
2022/03/12 09:11:58;;;;;;;93.67;46.63;;;;;;;5.57;43.87;101134.16;1751468;81;21428;-67
2022/03/12 09:14:25;;;;;;;39.73;20.63;;;;;;;5.70;43.58;101134.09;1723472;80;21586;-66
2022/03/12 09:16:52;;;;;;;18.92;10.13;;;;;;;5.73;43.37;101122.41;1737489;81;21487;-66
2022/03/12 09:19:18;;;;;;;15.13;8.27;;;;;;;5.70;43.20;101119.84;1757958;81;21387;-66
2022/03/12 09:21:45;;;;;;;11.65;7.30;;;;;;;5.67;43.19;101128.92;1732215;81;20899;-66
2022/03/12 09:24:12;;;;;;;13.18;7.40;;;;;;;5.71;43.22;101120.25;1709219;82;20950;-67
2022/03/12 09:26:39;;;;;;;13.05;8.45;;;;;;;5.83;43.46;101117.62;1747916;80;20966;-66
2022/03/12 09:29:05;;;;;;;9.33;6.15;;;;;;;5.92;42.92;101116.26;1753485;80;20933;-67
2022/03/12 09:31:32;;;;;;;17.92;9.28;;;;;;;5.86;42.58;101122.78;1753471;80;21026;-67
2022/03/12 09:34:00;;;;;;;14.35;8.15;;;;;;;5.80;42.53;101112.45;1740927;81;20898;-66
2022/03/12 09:36:27;;;;;;;159.05;103.20;;;;;;;5.81;42.77;101122.80;1748826;80;20922;-66
2022/03/12 09:38:53;;;;;;;196.50;126.82;;;;;;;5.96;43.02;101124.46;1754835;81;21522;-66
2022/03/12 09:41:20;;;;;;;359.12;208.02;;;;;;;6.16;42.97;101128.67;1751057;80;20958;-66
2022/03/12 09:43:46;;;;;;;748.97;518.45;;;;;;;6.23;42.71;101127.77;1759200;80;20993;-66
2022/03/12 09:46:13;;;;;;;247.75;132.87;;;;;;;6.31;42.72;101124.69;1769235;80;21381;-67
2022/03/12 09:48:40;;;;;;;71.02;36.10;;;;;;;6.41;42.62;101126.77;1763107;81;20857;-66
2022/03/12 09:51:06;;;;;;;40.38;21.62;;;;;;;6.34;42.28;101115.58;1752925;81;20917;-66
2022/03/12 09:53:34;;;;;;;19.57;9.37;;;;;;;6.29;42.14;101114.75;1766050;81;20902;-67
2022/03/12 09:56:01;;;;;;;226.40;129.05;;;;;;;6.32;42.11;101110.83;1761239;80;21853;-66
2022/03/12 09:58:28;;;;;;;27.60;15.40;;;;;;;6.40;42.44;101102.55;1752359;80;20925;-66
2022/03/12 10:00:56;;;;;;;15.58;9.03;;;;;;;6.48;42.18;101105.95;1744620;80;20973;-67
2022/03/12 10:03:25;;;;;;;;;;;;;;;6.50;42.09;101106.80;1760577;81;20918;-66
2022/03/12 10:05:55;;;;;;;157.32;75.00;;;;;;;6.47;41.84;101108.13;1759168;81;20100;-67
2022/03/12 10:08:29;;;;;;;20.52;11.28;;;;;;;6.60;42.01;101104.13;1759042;80;21015;-67
2022/03/12 10:10:56;;;;;;;52.60;14.05;;;;;;;6.62;41.77;101105.83;1760363;80;20970;-67
2022/03/12 10:13:22;;;;;;;21.67;9.70;;;;;;;6.58;41.50;101095.48;1748833;80;20869;-67
2022/03/12 10:15:49;;;;;;;80.07;49.27;;;;;;;6.57;41.53;101092.48;1758138;81;21553;-67
2022/03/12 10:18:16;;;;;;;30.35;21.33;;;;;;;6.64;41.61;101098.05;1741621;81;21115;-67
2022/03/12 10:20:43;;;;;;;23.80;10.63;;;;;;;6.67;41.31;101096.72;1740641;80;21719;-66
2022/03/12 10:23:10;;;;;;;163.90;104.67;;;;;;;6.68;41.05;101101.87;1711181;82;20945;-66
2022/03/12 10:25:40;;;;;;;38.15;26.20;;;;;;;6.73;41.46;101105.74;1722387;83;26419;-67
2022/03/12 10:28:07;;;;;;;60.00;31.55;;;;;;;6.84;41.36;101090.92;1748645;80;21436;-66
2022/03/12 10:30:34;;;;;;;36.25;16.75;;;;;;;6.91;40.98;101089.97;1716480;82;20997;-67
2022/03/12 10:33:01;;;;;;;;;;;;;;;6.90;40.83;101098.64;1742354;81;21036;-67
2022/03/12 10:35:35;;;;;;;17.05;8.10;;;;;;;6.89;40.61;101097.34;1724897;81;20128;-67
2022/03/12 10:38:05;;;;;;;58.75;29.32;;;;;;;6.89;40.73;101099.53;1744648;81;20941;-66
2022/03/12 10:40:33;;;;;;;28.77;15.08;;;;;;;6.95;40.84;101098.61;1749305;80;20911;-67
2022/03/12 10:43:05;;;;;;;41.53;27.48;;;;;;;7.09;40.96;101097.16;1746567;80;21009;-67
2022/03/12 10:45:41;;;;;;;12.05;8.08;;;;;;;7.21;40.59;101093.12;1725606;81;21119;-66
2022/03/12 10:48:09;;;;;;;11.77;6.70;;;;;;;7.19;40.43;101089.67;1743759;81;20957;-66
2022/03/12 10:50:43;;;;;;;13.88;7.95;;;;;;;7.11;40.19;101088.89;1744464;81;20867;-67
2022/03/12 10:53:13;;;;;;;27.75;16.60;;;;;;;7.14;40.32;101084.95;1706888;82;20967;-67
2022/03/12 10:55:43;;;;;;;25.52;15.23;;;;;;;7.26;40.55;101086.14;1724992;81;20908;-66
2022/03/12 10:58:26;;;;;;;46.45;25.08;;;;;;;7.35;40.15;101078.22;1734256;81;21045;-67
2022/03/12 11:00:59;;;;;;;19.02;10.82;;;;;;;7.44;40.09;101076.39;1736057;81;20908;-70
2022/03/12 11:03:32;;;;;;;15.55;8.85;;;;;;;7.56;40.17;101065.41;1732666;81;20937;-68
2022/03/12 11:06:02;;;;;;;13.80;7.80;;;;;;;7.68;39.99;101070.87;1750474;80;20943;-66
2022/03/12 11:08:31;;;;;;;11.78;7.08;;;;;;;7.71;39.83;101066.93;1683196;82;20958;-67
2022/03/12 11:11:16;;;;;;;11.83;6.80;;;;;;;7.75;39.79;101067.29;1732331;81;21203;-67
2022/03/12 11:13:47;;;;;;;16.75;10.08;;;;;;;7.78;39.71;101068.55;1732685;81;20902;-66
2022/03/12 11:16:28;;;;;;;10.20;7.87;;;;;;;7.85;39.42;101061.09;1706051;82;21917;-66
2022/03/12 11:18:58;;;;;;;15.45;5.97;;;;;;;7.80;39.55;101065.48;1710329;82;21499;-67
2022/03/12 11:21:46;;;;;;;5.95;4.15;;;;;;;7.85;39.49;101062.83;1741233;81;20928;-67
2022/03/12 11:24:23;;;;;;;11.10;5.53;;;;;;;7.90;39.27;101070.55;1738351;81;22019;-69
2022/03/12 11:26:58;;;;;;;8.03;4.67;;;;;;;7.95;39.22;101062.24;1746472;80;21448;-68
2022/03/12 11:29:28;;;;;;;8.30;4.97;;;;;;;7.94;38.73;101059.23;1744613;81;20890;-69
2022/03/12 11:32:09;;;;;;;7.28;4.42;;;;;;;7.88;38.40;101054.13;1740718;81;20934;-68